Terminal Aerodrome Forecast
Issued by NWS Memphis, TN

Home | Current Version | Previous Version | Text Only | Print | Product List | Glossary On
Versions: 1 2 3 4 5 6 7 8 9 10 11 12 13 14 15
000
FTUS44 KMEG 292336
TAFMKL
TAF
KMKL 292336Z 3000/3024 33012G22KT P6SM BKN028 OVC200
     FM300100 36010KT P6SM BKN028
     FM300600 01008KT P6SM BKN025
     FM301600 01007KT P6SM SCT030=

USA.gov is the U.S. government's official web portal to all federal, state and local government web resources and services.